sensor_id;sensor_type;location;lat;lon;timestamp;P1;durP1;ratioP1;P2;durP2;ratioP2
10281;SDS011;5186;59.472;18.048;2023-11-21T00:02:19;10.80;;;2.60;;
10281;SDS011;5186;59.472;18.048;2023-11-21T00:04:45;7.23;;;2.40;;
10281;SDS011;5186;59.472;18.048;2023-11-21T00:07:12;5.57;;;2.87;;
10281;SDS011;5186;59.472;18.048;2023-11-21T00:09:38;7.23;;;2.53;;
10281;SDS011;5186;59.472;18.048;2023-11-21T00:12:04;11.87;;;2.60;;
10281;SDS011;5186;59.472;18.048;2023-11-21T00:14:29;8.70;;;2.43;;
10281;SDS011;5186;59.472;18.048;2023-11-21T00:16:55;5.67;;;2.47;;
10281;SDS011;5186;59.472;18.048;2023-11-21T00:19:20;6.37;;;2.50;;
10281;SDS011;5186;59.472;18.048;2023-11-21T00:21:46;4.07;;;2.20;;
10281;SDS011;5186;59.472;18.048;2023-11-21T00:24:11;4.73;;;2.23;;
10281;SDS011;5186;59.472;18.048;2023-11-21T00:26:39;5.13;;;2.30;;
10281;SDS011;5186;59.472;18.048;2023-11-21T00:29:04;8.63;;;2.60;;
10281;SDS011;5186;59.472;18.048;2023-11-21T00:31:33;3.90;;;2.37;;
10281;SDS011;5186;59.472;18.048;2023-11-21T00:34:02;4.77;;;2.37;;
10281;SDS011;5186;59.472;18.048;2023-11-21T00:36:30;3.53;;;2.40;;
10281;SDS011;5186;59.472;18.048;2023-11-21T00:38:56;9.30;;;2.60;;
10281;SDS011;5186;59.472;18.048;2023-11-21T00:41:22;5.23;;;2.77;;
10281;SDS011;5186;59.472;18.048;2023-11-21T00:43:48;3.43;;;2.40;;
10281;SDS011;5186;59.472;18.048;2023-11-21T00:46:13;4.47;;;2.27;;
10281;SDS011;5186;59.472;18.048;2023-11-21T00:48:39;4.70;;;2.43;;
10281;SDS011;5186;59.472;18.048;2023-11-21T00:51:04;4.20;;;2.63;;
10281;SDS011;5186;59.472;18.048;2023-11-21T00:53:31;4.47;;;2.80;;
10281;SDS011;5186;59.472;18.048;2023-11-21T00:55:57;2.80;;;2.17;;
10281;SDS011;5186;59.472;18.048;2023-11-21T00:58:25;3.30;;;2.33;;
10281;SDS011;5186;59.472;18.048;2023-11-21T01:00:51;3.87;;;2.63;;
10281;SDS011;5186;59.472;18.048;2023-11-21T01:03:17;4.30;;;2.70;;
10281;SDS011;5186;59.472;18.048;2023-11-21T01:05:43;4.20;;;2.33;;
10281;SDS011;5186;59.472;18.048;2023-11-21T01:08:09;3.57;;;2.30;;
10281;SDS011;5186;59.472;18.048;2023-11-21T01:10:35;3.77;;;2.60;;
10281;SDS011;5186;59.472;18.048;2023-11-21T01:13:01;4.40;;;2.63;;
10281;SDS011;5186;59.472;18.048;2023-11-21T01:15:29;4.03;;;2.50;;
10281;SDS011;5186;59.472;18.048;2023-11-21T01:17:54;4.30;;;2.63;;
10281;SDS011;5186;59.472;18.048;2023-11-21T01:20:20;3.57;;;2.60;;
10281;SDS011;5186;59.472;18.048;2023-11-21T01:22:45;5.13;;;2.90;;
10281;SDS011;5186;59.472;18.048;2023-11-21T01:25:14;6.50;;;2.60;;
10281;SDS011;5186;59.472;18.048;2023-11-21T01:27:41;4.00;;;2.20;;
10281;SDS011;5186;59.472;18.048;2023-11-21T01:30:07;3.43;;;2.23;;
10281;SDS011;5186;59.472;18.048;2023-11-21T01:32:35;3.43;;;2.17;;
10281;SDS011;5186;59.472;18.048;2023-11-21T01:35:04;4.33;;;2.80;;
10281;SDS011;5186;59.472;18.048;2023-11-21T01:37:31;3.03;;;2.20;;
10281;SDS011;5186;59.472;18.048;2023-11-21T01:39:58;3.57;;;2.50;;
10281;SDS011;5186;59.472;18.048;2023-11-21T01:42:24;3.73;;;2.57;;
10281;SDS011;5186;59.472;18.048;2023-11-21T01:44:49;3.27;;;2.30;;
10281;SDS011;5186;59.472;18.048;2023-11-21T01:47:15;3.27;;;2.47;;
10281;SDS011;5186;59.472;18.048;2023-11-21T01:49:45;3.50;;;2.77;;
10281;SDS011;5186;59.472;18.048;2023-11-21T01:52:11;3.27;;;2.53;;
10281;SDS011;5186;59.472;18.048;2023-11-21T01:54:37;4.13;;;2.60;;
10281;SDS011;5186;59.472;18.048;2023-11-21T01:57:03;5.37;;;2.80;;
10281;SDS011;5186;59.472;18.048;2023-11-21T01:59:33;4.10;;;2.63;;
10281;SDS011;5186;59.472;18.048;2023-11-21T02:02:01;2.80;;;2.20;;
10281;SDS011;5186;59.472;18.048;2023-11-21T02:04:31;4.43;;;2.30;;
10281;SDS011;5186;59.472;18.048;2023-11-21T02:07:01;3.53;;;2.50;;
10281;SDS011;5186;59.472;18.048;2023-11-21T02:09:27;3.43;;;2.27;;
10281;SDS011;5186;59.472;18.048;2023-11-21T02:11:56;2.47;;;2.07;;
10281;SDS011;5186;59.472;18.048;2023-11-21T02:14:23;4.13;;;2.70;;
10281;SDS011;5186;59.472;18.048;2023-11-21T02:16:53;3.67;;;2.47;;
10281;SDS011;5186;59.472;18.048;2023-11-21T02:19:21;3.57;;;2.70;;
10281;SDS011;5186;59.472;18.048;2023-11-21T02:21:50;3.67;;;2.40;;
10281;SDS011;5186;59.472;18.048;2023-11-21T02:24:20;3.27;;;2.70;;
10281;SDS011;5186;59.472;18.048;2023-11-21T02:26:46;3.00;;;2.30;;
10281;SDS011;5186;59.472;18.048;2023-11-21T02:29:12;4.07;;;2.50;;
10281;SDS011;5186;59.472;18.048;2023-11-21T02:31:38;3.27;;;2.40;;
10281;SDS011;5186;59.472;18.048;2023-11-21T02:34:12;5.00;;;2.40;;
10281;SDS011;5186;59.472;18.048;2023-11-21T02:36:39;3.30;;;2.50;;
10281;SDS011;5186;59.472;18.048;2023-11-21T02:39:05;3.80;;;2.60;;
10281;SDS011;5186;59.472;18.048;2023-11-21T02:41:32;5.27;;;2.87;;
10281;SDS011;5186;59.472;18.048;2023-11-21T02:43:59;3.80;;;2.70;;
10281;SDS011;5186;59.472;18.048;2023-11-21T02:46:25;3.77;;;2.73;;
10281;SDS011;5186;59.472;18.048;2023-11-21T02:48:51;5.00;;;2.77;;
10281;SDS011;5186;59.472;18.048;2023-11-21T02:51:19;4.27;;;3.00;;
10281;SDS011;5186;59.472;18.048;2023-11-21T02:53:44;3.40;;;2.70;;
10281;SDS011;5186;59.472;18.048;2023-11-21T02:56:11;3.50;;;2.70;;
10281;SDS011;5186;59.472;18.048;2023-11-21T02:58:37;3.97;;;2.77;;
10281;SDS011;5186;59.472;18.048;2023-11-21T03:01:06;4.37;;;2.97;;
10281;SDS011;5186;59.472;18.048;2023-11-21T03:03:33;5.50;;;3.23;;
10281;SDS011;5186;59.472;18.048;2023-11-21T03:05:58;5.43;;;3.40;;
10281;SDS011;5186;59.472;18.048;2023-11-21T03:08:24;5.07;;;2.73;;
10281;SDS011;5186;59.472;18.048;2023-11-21T03:10:50;5.13;;;3.10;;
10281;SDS011;5186;59.472;18.048;2023-11-21T03:13:15;4.43;;;3.10;;
10281;SDS011;5186;59.472;18.048;2023-11-21T03:15:41;3.77;;;2.87;;
10281;SDS011;5186;59.472;18.048;2023-11-21T03:18:07;5.20;;;2.97;;
10281;SDS011;5186;59.472;18.048;2023-11-21T03:20:33;5.50;;;3.20;;
10281;SDS011;5186;59.472;18.048;2023-11-21T03:22:59;3.93;;;2.83;;
10281;SDS011;5186;59.472;18.048;2023-11-21T03:25:25;3.90;;;2.77;;
10281;SDS011;5186;59.472;18.048;2023-11-21T03:27:50;4.67;;;3.20;;
10281;SDS011;5186;59.472;18.048;2023-11-21T03:30:16;3.20;;;2.43;;
10281;SDS011;5186;59.472;18.048;2023-11-21T03:32:42;3.63;;;2.53;;
10281;SDS011;5186;59.472;18.048;2023-11-21T03:35:07;3.57;;;2.20;;
10281;SDS011;5186;59.472;18.048;2023-11-21T03:37:33;4.77;;;2.57;;
10281;SDS011;5186;59.472;18.048;2023-11-21T03:39:59;3.80;;;2.70;;
10281;SDS011;5186;59.472;18.048;2023-11-21T03:42:24;2.87;;;2.30;;
10281;SDS011;5186;59.472;18.048;2023-11-21T03:44:52;2.83;;;2.27;;
10281;SDS011;5186;59.472;18.048;2023-11-21T03:47:18;2.13;;;1.90;;
10281;SDS011;5186;59.472;18.048;2023-11-21T03:49:44;3.30;;;2.13;;
10281;SDS011;5186;59.472;18.048;2023-11-21T03:52:10;2.73;;;2.13;;
10281;SDS011;5186;59.472;18.048;2023-11-21T03:54:36;2.73;;;1.80;;
10281;SDS011;5186;59.472;18.048;2023-11-21T03:57:02;2.60;;;1.77;;
10281;SDS011;5186;59.472;18.048;2023-11-21T03:59:28;3.53;;;2.00;;
10281;SDS011;5186;59.472;18.048;2023-11-21T04:01:56;2.10;;;1.70;;
10281;SDS011;5186;59.472;18.048;2023-11-21T04:04:22;3.00;;;2.03;;
10281;SDS011;5186;59.472;18.048;2023-11-21T04:06:48;2.47;;;1.90;;
10281;SDS011;5186;59.472;18.048;2023-11-21T04:09:13;2.30;;;1.90;;
10281;SDS011;5186;59.472;18.048;2023-11-21T04:11:39;3.13;;;2.07;;
10281;SDS011;5186;59.472;18.048;2023-11-21T04:14:04;2.53;;;1.93;;
10281;SDS011;5186;59.472;18.048;2023-11-21T04:16:30;2.33;;;1.87;;
10281;SDS011;5186;59.472;18.048;2023-11-21T04:18:56;2.20;;;1.70;;
10281;SDS011;5186;59.472;18.048;2023-11-21T04:21:22;3.37;;;2.23;;
10281;SDS011;5186;59.472;18.048;2023-11-21T04:23:49;2.60;;;2.07;;
10281;SDS011;5186;59.472;18.048;2023-11-21T04:26:14;2.73;;;1.73;;
10281;SDS011;5186;59.472;18.048;2023-11-21T04:28:40;2.30;;;1.83;;
10281;SDS011;5186;59.472;18.048;2023-11-21T04:31:05;2.20;;;1.97;;
10281;SDS011;5186;59.472;18.048;2023-11-21T04:33:32;3.20;;;2.00;;
10281;SDS011;5186;59.472;18.048;2023-11-21T04:35:57;2.07;;;1.83;;
10281;SDS011;5186;59.472;18.048;2023-11-21T04:38:23;1.70;;;1.60;;
10281;SDS011;5186;59.472;18.048;2023-11-21T04:40:48;3.20;;;2.00;;
10281;SDS011;5186;59.472;18.048;2023-11-21T04:43:14;2.53;;;2.00;;
10281;SDS011;5186;59.472;18.048;2023-11-21T04:45:39;2.80;;;2.33;;
10281;SDS011;5186;59.472;18.048;2023-11-21T04:48:06;2.57;;;1.87;;
10281;SDS011;5186;59.472;18.048;2023-11-21T04:50:33;2.33;;;1.73;;
10281;SDS011;5186;59.472;18.048;2023-11-21T04:52:59;2.17;;;1.83;;
10281;SDS011;5186;59.472;18.048;2023-11-21T04:55:24;2.03;;;1.83;;
10281;SDS011;5186;59.472;18.048;2023-11-21T04:57:53;1.93;;;1.70;;
10281;SDS011;5186;59.472;18.048;2023-11-21T05:00:18;1.97;;;1.77;;
10281;SDS011;5186;59.472;18.048;2023-11-21T05:02:46;1.93;;;1.70;;
10281;SDS011;5186;59.472;18.048;2023-11-21T05:05:11;2.23;;;1.90;;
10281;SDS011;5186;59.472;18.048;2023-11-21T05:07:38;1.73;;;1.63;;
10281;SDS011;5186;59.472;18.048;2023-11-21T05:10:05;2.50;;;1.83;;
10281;SDS011;5186;59.472;18.048;2023-11-21T05:12:36;2.17;;;1.80;;
10281;SDS011;5186;59.472;18.048;2023-11-21T05:15:03;3.23;;;1.80;;
10281;SDS011;5186;59.472;18.048;2023-11-21T05:17:34;2.43;;;1.70;;
10281;SDS011;5186;59.472;18.048;2023-11-21T05:20:00;1.80;;;1.67;;
10281;SDS011;5186;59.472;18.048;2023-11-21T05:22:33;2.47;;;1.90;;
10281;SDS011;5186;59.472;18.048;2023-11-21T05:24:59;1.97;;;1.70;;
10281;SDS011;5186;59.472;18.048;2023-11-21T05:27:25;3.43;;;1.80;;
10281;SDS011;5186;59.472;18.048;2023-11-21T05:29:51;2.23;;;1.90;;
10281;SDS011;5186;59.472;18.048;2023-11-21T05:32:17;1.67;;;1.50;;
10281;SDS011;5186;59.472;18.048;2023-11-21T05:34:42;1.57;;;1.47;;
10281;SDS011;5186;59.472;18.048;2023-11-21T05:37:08;2.17;;;1.90;;
10281;SDS011;5186;59.472;18.048;2023-11-21T05:39:34;1.73;;;1.63;;
10281;SDS011;5186;59.472;18.048;2023-11-21T05:42:00;2.23;;;1.73;;
10281;SDS011;5186;59.472;18.048;2023-11-21T05:44:26;2.40;;;1.80;;
10281;SDS011;5186;59.472;18.048;2023-11-21T05:46:52;3.70;;;1.80;;
10281;SDS011;5186;59.472;18.048;2023-11-21T05:49:18;2.97;;;1.97;;
10281;SDS011;5186;59.472;18.048;2023-11-21T05:51:46;1.70;;;1.60;;
10281;SDS011;5186;59.472;18.048;2023-11-21T05:54:12;1.80;;;1.70;;
10281;SDS011;5186;59.472;18.048;2023-11-21T05:56:38;2.97;;;2.03;;
10281;SDS011;5186;59.472;18.048;2023-11-21T05:59:03;2.07;;;1.70;;
10281;SDS011;5186;59.472;18.048;2023-11-21T06:01:29;2.20;;;1.60;;
10281;SDS011;5186;59.472;18.048;2023-11-21T06:03:54;2.60;;;1.80;;
10281;SDS011;5186;59.472;18.048;2023-11-21T06:06:20;1.77;;;1.67;;
10281;SDS011;5186;59.472;18.048;2023-11-21T06:08:48;2.47;;;1.80;;
10281;SDS011;5186;59.472;18.048;2023-11-21T06:11:14;3.60;;;1.97;;
10281;SDS011;5186;59.472;18.048;2023-11-21T06:13:39;1.90;;;1.70;;
10281;SDS011;5186;59.472;18.048;2023-11-21T06:16:05;2.77;;;1.83;;
10281;SDS011;5186;59.472;18.048;2023-11-21T06:18:31;2.83;;;1.70;;
10281;SDS011;5186;59.472;18.048;2023-11-21T06:20:56;1.83;;;1.73;;
10281;SDS011;5186;59.472;18.048;2023-11-21T06:23:23;2.53;;;1.80;;
10281;SDS011;5186;59.472;18.048;2023-11-21T06:25:48;2.93;;;1.93;;
10281;SDS011;5186;59.472;18.048;2023-11-21T06:28:14;2.30;;;1.90;;
10281;SDS011;5186;59.472;18.048;2023-11-21T06:30:42;2.27;;;2.00;;
10281;SDS011;5186;59.472;18.048;2023-11-21T06:33:09;2.60;;;1.80;;
10281;SDS011;5186;59.472;18.048;2023-11-21T06:35:35;2.10;;;1.90;;
10281;SDS011;5186;59.472;18.048;2023-11-21T06:38:00;2.43;;;2.00;;
10281;SDS011;5186;59.472;18.048;2023-11-21T06:40:27;2.23;;;1.80;;
10281;SDS011;5186;59.472;18.048;2023-11-21T06:42:52;2.90;;;2.13;;
10281;SDS011;5186;59.472;18.048;2023-11-21T06:45:18;2.20;;;1.90;;
10281;SDS011;5186;59.472;18.048;2023-11-21T06:47:45;2.63;;;2.13;;
10281;SDS011;5186;59.472;18.048;2023-11-21T06:50:10;3.23;;;1.97;;
10281;SDS011;5186;59.472;18.048;2023-11-21T06:52:36;2.50;;;2.00;;
10281;SDS011;5186;59.472;18.048;2023-11-21T06:55:02;3.13;;;2.10;;
10281;SDS011;5186;59.472;18.048;2023-11-21T06:57:28;2.93;;;2.00;;
10281;SDS011;5186;59.472;18.048;2023-11-21T06:59:54;2.70;;;2.13;;
10281;SDS011;5186;59.472;18.048;2023-11-21T07:02:19;3.37;;;2.53;;
10281;SDS011;5186;59.472;18.048;2023-11-21T07:04:45;3.17;;;2.30;;
10281;SDS011;5186;59.472;18.048;2023-11-21T07:07:11;2.87;;;2.20;;
10281;SDS011;5186;59.472;18.048;2023-11-21T07:09:37;3.53;;;2.23;;
10281;SDS011;5186;59.472;18.048;2023-11-21T07:12:03;3.50;;;2.13;;
10281;SDS011;5186;59.472;18.048;2023-11-21T07:14:31;2.77;;;2.27;;
10281;SDS011;5186;59.472;18.048;2023-11-21T07:16:57;2.80;;;2.20;;
10281;SDS011;5186;59.472;18.048;2023-11-21T07:19:22;2.70;;;2.20;;
10281;SDS011;5186;59.472;18.048;2023-11-21T07:21:48;2.77;;;2.20;;
10281;SDS011;5186;59.472;18.048;2023-11-21T07:24:17;2.60;;;2.10;;
10281;SDS011;5186;59.472;18.048;2023-11-21T07:26:43;3.40;;;2.40;;
10281;SDS011;5186;59.472;18.048;2023-11-21T07:29:09;2.60;;;2.40;;
10281;SDS011;5186;59.472;18.048;2023-11-21T07:31:36;3.50;;;2.20;;
10281;SDS011;5186;59.472;18.048;2023-11-21T07:34:03;3.17;;;2.20;;
10281;SDS011;5186;59.472;18.048;2023-11-21T07:36:29;3.93;;;2.43;;
10281;SDS011;5186;59.472;18.048;2023-11-21T07:38:54;3.33;;;2.30;;
10281;SDS011;5186;59.472;18.048;2023-11-21T07:41:20;3.23;;;2.30;;
10281;SDS011;5186;59.472;18.048;2023-11-21T07:43:46;3.63;;;2.40;;
10281;SDS011;5186;59.472;18.048;2023-11-21T07:46:12;4.77;;;2.33;;
10281;SDS011;5186;59.472;18.048;2023-11-21T07:48:41;2.97;;;2.07;;
10281;SDS011;5186;59.472;18.048;2023-11-21T07:51:07;2.57;;;2.03;;
10281;SDS011;5186;59.472;18.048;2023-11-21T07:53:34;3.07;;;2.27;;
10281;SDS011;5186;59.472;18.048;2023-11-21T07:56:03;3.33;;;2.40;;
10281;SDS011;5186;59.472;18.048;2023-11-21T07:58:30;2.97;;;2.20;;
10281;SDS011;5186;59.472;18.048;2023-11-21T08:00:58;3.53;;;2.53;;
10281;SDS011;5186;59.472;18.048;2023-11-21T08:03:24;4.67;;;2.37;;
10281;SDS011;5186;59.472;18.048;2023-11-21T08:05:51;4.27;;;2.37;;
10281;SDS011;5186;59.472;18.048;2023-11-21T08:08:17;2.40;;;2.20;;
10281;SDS011;5186;59.472;18.048;2023-11-21T08:10:43;3.90;;;2.70;;
10281;SDS011;5186;59.472;18.048;2023-11-21T08:13:13;4.83;;;2.57;;
10281;SDS011;5186;59.472;18.048;2023-11-21T08:15:40;5.13;;;2.97;;
10281;SDS011;5186;59.472;18.048;2023-11-21T08:18:10;5.20;;;2.87;;
10281;SDS011;5186;59.472;18.048;2023-11-21T08:20:35;4.80;;;2.57;;
10281;SDS011;5186;59.472;18.048;2023-11-21T08:23:03;2.43;;;2.23;;
10281;SDS011;5186;59.472;18.048;2023-11-21T08:25:30;2.53;;;2.33;;
10281;SDS011;5186;59.472;18.048;2023-11-21T08:27:56;2.83;;;2.27;;
10281;SDS011;5186;59.472;18.048;2023-11-21T08:30:22;3.00;;;2.10;;
10281;SDS011;5186;59.472;18.048;2023-11-21T08:32:49;4.90;;;2.10;;
10281;SDS011;5186;59.472;18.048;2023-11-21T08:35:15;3.43;;;2.30;;
10281;SDS011;5186;59.472;18.048;2023-11-21T08:37:41;3.90;;;2.50;;
10281;SDS011;5186;59.472;18.048;2023-11-21T08:40:08;2.93;;;1.90;;
10281;SDS011;5186;59.472;18.048;2023-11-21T08:42:41;2.50;;;2.07;;
10281;SDS011;5186;59.472;18.048;2023-11-21T08:45:07;4.00;;;2.20;;
10281;SDS011;5186;59.472;18.048;2023-11-21T08:47:34;3.63;;;2.00;;
10281;SDS011;5186;59.472;18.048;2023-11-21T08:50:01;3.50;;;2.10;;
10281;SDS011;5186;59.472;18.048;2023-11-21T08:52:27;3.27;;;1.90;;
10281;SDS011;5186;59.472;18.048;2023-11-21T08:54:53;3.40;;;2.00;;
10281;SDS011;5186;59.472;18.048;2023-11-21T08:57:23;3.33;;;2.40;;
10281;SDS011;5186;59.472;18.048;2023-11-21T08:59:49;4.63;;;2.57;;
10281;SDS011;5186;59.472;18.048;2023-11-21T09:02:20;2.53;;;1.80;;
10281;SDS011;5186;59.472;18.048;2023-11-21T09:04:51;2.10;;;1.70;;
10281;SDS011;5186;59.472;18.048;2023-11-21T09:07:17;2.20;;;2.00;;
10281;SDS011;5186;59.472;18.048;2023-11-21T09:09:46;2.63;;;1.90;;
10281;SDS011;5186;59.472;18.048;2023-11-21T09:12:13;2.60;;;2.00;;
10281;SDS011;5186;59.472;18.048;2023-11-21T09:14:38;2.40;;;1.80;;
10281;SDS011;5186;59.472;18.048;2023-11-21T09:17:04;2.37;;;2.00;;
10281;SDS011;5186;59.472;18.048;2023-11-21T09:19:35;2.17;;;1.70;;
10281;SDS011;5186;59.472;18.048;2023-11-21T09:22:02;2.10;;;1.70;;
10281;SDS011;5186;59.472;18.048;2023-11-21T09:24:27;2.13;;;1.73;;
10281;SDS011;5186;59.472;18.048;2023-11-21T09:26:53;3.43;;;1.70;;
10281;SDS011;5186;59.472;18.048;2023-11-21T09:29:19;2.83;;;1.83;;
10281;SDS011;5186;59.472;18.048;2023-11-21T09:31:44;3.53;;;2.10;;
10281;SDS011;5186;59.472;18.048;2023-11-21T09:34:10;3.70;;;2.40;;
10281;SDS011;5186;59.472;18.048;2023-11-21T09:36:36;3.67;;;2.37;;
10281;SDS011;5186;59.472;18.048;2023-11-21T09:39:04;2.73;;;2.10;;
10281;SDS011;5186;59.472;18.048;2023-11-21T09:41:34;2.83;;;2.07;;
10281;SDS011;5186;59.472;18.048;2023-11-21T09:44:09;2.10;;;1.90;;
10281;SDS011;5186;59.472;18.048;2023-11-21T09:46:40;2.47;;;2.00;;
10281;SDS011;5186;59.472;18.048;2023-11-21T09:49:07;3.07;;;2.10;;
10281;SDS011;5186;59.472;18.048;2023-11-21T09:51:37;3.13;;;2.07;;
10281;SDS011;5186;59.472;18.048;2023-11-21T09:54:05;3.97;;;2.73;;
10281;SDS011;5186;59.472;18.048;2023-11-21T09:56:33;3.30;;;2.23;;
10281;SDS011;5186;59.472;18.048;2023-11-21T09:59:01;4.33;;;2.27;;
10281;SDS011;5186;59.472;18.048;2023-11-21T10:01:32;4.03;;;2.20;;
10281;SDS011;5186;59.472;18.048;2023-11-21T10:04:00;2.37;;;2.17;;
10281;SDS011;5186;59.472;18.048;2023-11-21T10:06:26;2.53;;;2.20;;
10281;SDS011;5186;59.472;18.048;2023-11-21T10:08:52;3.93;;;2.30;;
10281;SDS011;5186;59.472;18.048;2023-11-21T10:11:22;3.37;;;2.03;;
10281;SDS011;5186;59.472;18.048;2023-11-21T10:13:52;3.23;;;1.97;;
10281;SDS011;5186;59.472;18.048;2023-11-21T10:16:19;2.93;;;2.37;;
10281;SDS011;5186;59.472;18.048;2023-11-21T10:18:46;2.80;;;2.17;;
10281;SDS011;5186;59.472;18.048;2023-11-21T10:21:17;3.20;;;2.50;;
10281;SDS011;5186;59.472;18.048;2023-11-21T10:23:43;2.87;;;2.17;;
10281;SDS011;5186;59.472;18.048;2023-11-21T10:26:09;3.87;;;2.40;;
10281;SDS011;5186;59.472;18.048;2023-11-21T10:28:41;3.30;;;2.20;;
10281;SDS011;5186;59.472;18.048;2023-11-21T10:31:32;2.40;;;1.97;;
10281;SDS011;5186;59.472;18.048;2023-11-21T10:34:12;3.97;;;2.27;;
10281;SDS011;5186;59.472;18.048;2023-11-21T10:36:38;3.00;;;2.17;;
10281;SDS011;5186;59.472;18.048;2023-11-21T10:39:03;3.27;;;2.40;;
10281;SDS011;5186;59.472;18.048;2023-11-21T10:41:29;3.73;;;2.33;;
10281;SDS011;5186;59.472;18.048;2023-11-21T10:43:55;2.47;;;2.00;;
10281;SDS011;5186;59.472;18.048;2023-11-21T10:46:21;2.33;;;2.07;;
10281;SDS011;5186;59.472;18.048;2023-11-21T10:48:51;3.00;;;2.07;;
10281;SDS011;5186;59.472;18.048;2023-11-21T10:51:20;3.20;;;2.03;;
10281;SDS011;5186;59.472;18.048;2023-11-21T10:53:45;2.50;;;1.93;;
10281;SDS011;5186;59.472;18.048;2023-11-21T10:56:11;2.60;;;2.20;;
10281;SDS011;5186;59.472;18.048;2023-11-21T10:58:42;2.53;;;2.10;;
10281;SDS011;5186;59.472;18.048;2023-11-21T11:01:08;3.47;;;2.17;;
10281;SDS011;5186;59.472;18.048;2023-11-21T11:03:39;4.57;;;2.20;;
10281;SDS011;5186;59.472;18.048;2023-11-21T11:06:06;2.60;;;2.20;;
10281;SDS011;5186;59.472;18.048;2023-11-21T11:08:36;2.93;;;2.10;;
10281;SDS011;5186;59.472;18.048;2023-11-21T11:11:02;3.13;;;2.70;;
10281;SDS011;5186;59.472;18.048;2023-11-21T11:13:30;3.37;;;2.30;;
10281;SDS011;5186;59.472;18.048;2023-11-21T11:16:00;2.77;;;2.07;;
10281;SDS011;5186;59.472;18.048;2023-11-21T11:18:27;2.80;;;2.20;;
10281;SDS011;5186;59.472;18.048;2023-11-21T11:20:54;2.30;;;2.00;;
10281;SDS011;5186;59.472;18.048;2023-11-21T11:24:21;4.20;;;2.23;;
10281;SDS011;5186;59.472;18.048;2023-11-21T11:32:05;2.53;;;1.80;;
10281;SDS011;5186;59.472;18.048;2023-11-21T11:34:35;3.00;;;1.90;;
10281;SDS011;5186;59.472;18.048;2023-11-21T11:37:06;2.27;;;1.60;;
10281;SDS011;5186;59.472;18.048;2023-11-21T11:39:37;2.57;;;1.43;;
10281;SDS011;5186;59.472;18.048;2023-11-21T11:42:05;1.50;;;1.10;;
10281;SDS011;5186;59.472;18.048;2023-11-21T11:47:14;1.40;;;1.20;;
10281;SDS011;5186;59.472;18.048;2023-11-21T11:55:05;1.13;;;1.03;;
10281;SDS011;5186;59.472;18.048;2023-11-21T11:57:32;1.43;;;1.20;;
10281;SDS011;5186;59.472;18.048;2023-11-21T12:00:19;1.73;;;1.40;;
10281;SDS011;5186;59.472;18.048;2023-11-21T12:02:52;1.13;;;1.00;;
10281;SDS011;5186;59.472;18.048;2023-11-21T12:05:20;1.30;;;1.10;;
10281;SDS011;5186;59.472;18.048;2023-11-21T12:10:18;1.37;;;1.17;;
10281;SDS011;5186;59.472;18.048;2023-11-21T12:12:49;1.73;;;1.00;;
10281;SDS011;5186;59.472;18.048;2023-11-21T12:15:17;1.50;;;1.23;;
10281;SDS011;5186;59.472;18.048;2023-11-21T12:17:44;3.53;;;1.40;;
10281;SDS011;5186;59.472;18.048;2023-11-21T12:20:10;2.03;;;1.20;;
10281;SDS011;5186;59.472;18.048;2023-11-21T12:22:58;1.83;;;1.20;;
10281;SDS011;5186;59.472;18.048;2023-11-21T12:25:26;2.87;;;1.40;;
10281;SDS011;5186;59.472;18.048;2023-11-21T12:27:57;1.73;;;1.10;;
10281;SDS011;5186;59.472;18.048;2023-11-21T12:30:23;1.30;;;1.00;;
10281;SDS011;5186;59.472;18.048;2023-11-21T12:32:53;0.97;;;0.97;;
10281;SDS011;5186;59.472;18.048;2023-11-21T12:35:25;1.20;;;1.00;;
10281;SDS011;5186;59.472;18.048;2023-11-21T12:37:55;1.17;;;1.07;;
10281;SDS011;5186;59.472;18.048;2023-11-21T12:40:24;1.30;;;0.97;;
10281;SDS011;5186;59.472;18.048;2023-11-21T12:42:55;1.70;;;1.10;;
10281;SDS011;5186;59.472;18.048;2023-11-21T12:47:50;1.90;;;1.17;;
10281;SDS011;5186;59.472;18.048;2023-11-21T12:50:20;2.10;;;0.97;;
10281;SDS011;5186;59.472;18.048;2023-11-21T12:52:49;1.63;;;1.00;;
10281;SDS011;5186;59.472;18.048;2023-11-21T12:55:20;2.47;;;1.27;;
10281;SDS011;5186;59.472;18.048;2023-11-21T12:57:53;2.13;;;1.17;;
10281;SDS011;5186;59.472;18.048;2023-11-21T13:00:20;1.33;;;1.10;;
10281;SDS011;5186;59.472;18.048;2023-11-21T13:02:54;2.50;;;1.07;;
10281;SDS011;5186;59.472;18.048;2023-11-21T13:05:33;1.40;;;1.07;;
10281;SDS011;5186;59.472;18.048;2023-11-21T13:08:01;2.27;;;1.10;;
10281;SDS011;5186;59.472;18.048;2023-11-21T13:10:29;1.43;;;1.10;;
10281;SDS011;5186;59.472;18.048;2023-11-21T13:12:56;1.17;;;1.07;;
10281;SDS011;5186;59.472;18.048;2023-11-21T13:15:26;2.97;;;1.23;;
10281;SDS011;5186;59.472;18.048;2023-11-21T13:17:53;1.43;;;1.03;;
10281;SDS011;5186;59.472;18.048;2023-11-21T13:20:19;1.67;;;1.00;;
10281;SDS011;5186;59.472;18.048;2023-11-21T13:22:49;2.33;;;1.30;;
10281;SDS011;5186;59.472;18.048;2023-11-21T13:25:19;1.10;;;0.90;;
10281;SDS011;5186;59.472;18.048;2023-11-21T13:27:46;1.30;;;1.10;;
10281;SDS011;5186;59.472;18.048;2023-11-21T13:30:12;1.77;;;0.87;;
10281;SDS011;5186;59.472;18.048;2023-11-21T13:32:40;1.37;;;1.20;;
10281;SDS011;5186;59.472;18.048;2023-11-21T13:35:14;2.20;;;1.20;;
10281;SDS011;5186;59.472;18.048;2023-11-21T13:37:46;1.50;;;1.10;;
10281;SDS011;5186;59.472;18.048;2023-11-21T13:40:15;1.20;;;1.00;;
10281;SDS011;5186;59.472;18.048;2023-11-21T13:42:45;1.13;;;1.00;;
10281;SDS011;5186;59.472;18.048;2023-11-21T13:45:11;1.47;;;1.13;;
10281;SDS011;5186;59.472;18.048;2023-11-21T13:47:37;1.00;;;0.90;;
10281;SDS011;5186;59.472;18.048;2023-11-21T13:50:05;2.40;;;1.00;;
10281;SDS011;5186;59.472;18.048;2023-11-21T13:52:39;1.47;;;1.10;;
10281;SDS011;5186;59.472;18.048;2023-11-21T13:55:04;1.10;;;1.00;;
10281;SDS011;5186;59.472;18.048;2023-11-21T13:57:31;1.63;;;1.17;;
10281;SDS011;5186;59.472;18.048;2023-11-21T13:59:57;1.20;;;0.80;;
10281;SDS011;5186;59.472;18.048;2023-11-21T14:02:24;0.90;;;0.80;;
10281;SDS011;5186;59.472;18.048;2023-11-21T14:04:58;1.60;;;1.00;;
10281;SDS011;5186;59.472;18.048;2023-11-21T14:07:27;2.10;;;1.10;;
10281;SDS011;5186;59.472;18.048;2023-11-21T14:10:03;1.20;;;1.07;;
10281;SDS011;5186;59.472;18.048;2023-11-21T14:12:32;1.20;;;1.00;;
10281;SDS011;5186;59.472;18.048;2023-11-21T14:15:01;1.20;;;1.03;;
10281;SDS011;5186;59.472;18.048;2023-11-21T14:17:29;1.50;;;0.90;;
10281;SDS011;5186;59.472;18.048;2023-11-21T14:19:55;1.00;;;0.90;;
10281;SDS011;5186;59.472;18.048;2023-11-21T14:22:21;1.10;;;1.00;;
10281;SDS011;5186;59.472;18.048;2023-11-21T14:24:47;1.07;;;0.97;;
10281;SDS011;5186;59.472;18.048;2023-11-21T14:27:15;1.10;;;0.90;;
10281;SDS011;5186;59.472;18.048;2023-11-21T14:29:41;1.43;;;1.00;;
10281;SDS011;5186;59.472;18.048;2023-11-21T14:32:09;1.40;;;1.10;;
10281;SDS011;5186;59.472;18.048;2023-11-21T14:34:35;1.33;;;1.20;;
10281;SDS011;5186;59.472;18.048;2023-11-21T14:37:01;2.00;;;1.10;;
10281;SDS011;5186;59.472;18.048;2023-11-21T14:39:28;1.03;;;0.90;;
10281;SDS011;5186;59.472;18.048;2023-11-21T14:41:54;1.77;;;1.20;;
10281;SDS011;5186;59.472;18.048;2023-11-21T14:44:24;1.27;;;1.10;;
10281;SDS011;5186;59.472;18.048;2023-11-21T14:46:52;2.03;;;1.10;;
10281;SDS011;5186;59.472;18.048;2023-11-21T14:49:20;1.30;;;0.97;;
10281;SDS011;5186;59.472;18.048;2023-11-21T14:51:49;1.50;;;1.20;;
10281;SDS011;5186;59.472;18.048;2023-11-21T14:54:19;2.17;;;1.30;;
10281;SDS011;5186;59.472;18.048;2023-11-21T14:56:59;1.30;;;1.20;;
10281;SDS011;5186;59.472;18.048;2023-11-21T14:59:24;1.30;;;1.20;;
10281;SDS011;5186;59.472;18.048;2023-11-21T15:01:50;2.23;;;1.30;;
10281;SDS011;5186;59.472;18.048;2023-11-21T15:04:20;2.00;;;1.30;;
10281;SDS011;5186;59.472;18.048;2023-11-21T15:06:59;2.27;;;1.47;;
10281;SDS011;5186;59.472;18.048;2023-11-21T15:09:25;2.67;;;1.60;;